Time;durP1;ratioP1;P1;durP2;ratioP2;P2;SDS_P1;SDS_P2;PMS_P1;PMS_P2;Temp;Humidity;BMP_temperature;BMP_pressure;BME280_temperature;BME280_humidity;BME280_pressure;Samples;Min_cycle;Max_cycle;Signal;HPM_P1;HPM_P2
2023/09/08 00:04:38;;;;;;;6.57;5.88;;;23.30;71.30;;;;;;5094107;28;20296;-63
2023/09/08 00:07:07;;;;;;;10.68;5.43;;;23.30;71.40;;;;;;5095672;28;20185;-64
2023/09/08 00:09:35;;;;;;;8.18;5.65;;;23.30;71.30;;;;;;5095551;28;20214;-63
2023/09/08 00:12:02;;;;;;;6.20;5.50;;;23.30;71.30;;;;;;5095389;28;20191;-63
2023/09/08 00:14:30;;;;;;;6.05;5.45;;;23.30;71.40;;;;;;5095327;28;20218;-63
2023/09/08 00:16:58;;;;;;;6.65;5.45;;;23.30;71.30;;;;;;5095589;28;20197;-63
2023/09/08 00:19:26;;;;;;;5.88;5.28;;;23.30;71.30;;;;;;5095555;28;20225;-64
2023/09/08 00:21:56;;;;;;;6.13;5.50;;;23.30;71.30;;;;;;5094954;28;20209;-63
2023/09/08 00:24:23;;;;;;;5.75;5.15;;;23.30;72.10;;;;;;5095431;28;20218;-64
2023/09/08 00:26:51;;;;;;;6.75;5.63;;;23.30;71.30;;;;;;5095342;28;20230;-63
2023/09/08 00:29:19;;;;;;;7.65;5.45;;;23.30;71.20;;;;;;5094895;28;20221;-63
2023/09/08 00:31:47;;;;;;;5.82;5.00;;;23.30;71.30;;;;;;5095468;28;20194;-64
2023/09/08 00:34:15;;;;;;;5.75;4.93;;;23.30;71.20;;;;;;5095249;28;20218;-63
2023/09/08 00:36:43;;;;;;;5.85;5.25;;;23.30;71.20;;;;;;5094987;28;20214;-64
2023/09/08 00:39:13;;;;;;;6.13;4.90;;;23.30;71.20;;;;;;5094885;28;20218;-63
2023/09/08 00:41:50;;;;;;;6.50;5.50;;;23.30;71.20;;;;;;5094715;28;20186;-63
2023/09/08 00:44:18;;;;;;;7.35;5.60;;;23.30;71.20;;;;;;5025378;28;20217;-63
2023/09/08 00:46:46;;;;;;;8.40;5.75;;;23.30;71.10;;;;;;5094781;28;20271;-63
2023/09/08 00:49:14;;;;;;;6.60;5.55;;;23.30;71.10;;;;;;5094733;28;20222;-63
2023/09/08 00:51:41;;;;;;;7.05;5.60;;;23.20;71.00;;;;;;5094841;28;20224;-63
2023/09/08 00:54:11;;;;;;;7.32;5.38;;;23.30;71.10;;;;;;5094939;28;20214;-61
2023/09/08 00:56:43;;;;;;;7.55;5.63;;;23.30;71.10;;;;;;5086994;28;20225;-62
2023/09/08 01:02:36;;;;;;;;;;;;;;;;;;;;;
2023/09/08 01:05:23;;;;;;;8.13;5.53;;;23.30;71.10;;;;;;5041954;28;20221;-62
2023/09/08 01:07:52;;;;;;;6.88;5.07;;;23.30;71.90;;;;;;5094591;28;20201;-61
2023/09/08 01:10:21;;;;;;;6.63;5.40;;;23.30;71.10;;;;;;5094783;28;20251;-61
2023/09/08 01:12:51;;;;;;;6.32;5.68;;;23.20;71.00;;;;;;5093980;28;20724;-61
2023/09/08 01:15:18;;;;;;;6.35;5.22;;;23.20;71.00;;;;;;5094469;28;20245;-61
2023/09/08 01:17:46;;;;;;;5.68;5.07;;;23.20;70.90;;;;;;5091024;28;20194;-61
2023/09/08 01:20:21;;;;;;;7.07;5.28;;;23.20;70.90;;;;;;5094166;28;20225;-62
2023/09/08 01:23:15;;;;;;;6.38;5.50;;;23.20;70.90;;;;;;5094662;28;20239;-59
2023/09/08 01:25:49;;;;;;;5.75;5.15;;;23.20;70.90;;;;;;5094075;28;20244;-61
2023/09/08 01:28:17;;;;;;;6.53;5.80;;;23.20;70.90;;;;;;5093916;28;20183;-61
2023/09/08 01:30:46;;;;;;;7.20;5.85;;;23.20;70.90;;;;;;5093983;28;20222;-62
2023/09/08 01:33:13;;;;;;;7.85;5.50;;;23.20;70.90;;;;;;5093846;28;20277;-62
2023/09/08 01:35:41;;;;;;;5.38;4.82;;;23.20;70.90;;;;;;5093867;28;20229;-60
2023/09/08 01:38:09;;;;;;;6.05;5.45;;;23.20;70.90;;;;;;5093791;28;20194;-62
2023/09/08 01:40:37;;;;;;;5.32;4.78;;;23.20;70.90;;;;;;5094001;28;20218;-62
2023/09/08 01:43:08;;;;;;;5.72;5.13;;;23.20;70.90;;;;;;5094169;28;20190;-62
2023/09/08 01:45:36;;;;;;;7.38;5.07;;;23.20;70.90;;;;;;5093890;28;20218;-61
2023/09/08 01:48:04;;;;;;;5.60;4.95;;;23.30;71.00;;;;;;5093854;28;20186;-61
2023/09/08 01:50:31;;;;;;;6.15;5.47;;;23.20;70.80;;;;;;5093578;28;20214;-61
2023/09/08 01:59:11;;;;;;;5.95;5.35;;;23.20;70.70;;;;;;5031438;28;20726;-61
2023/09/08 02:01:39;;;;;;;7.43;5.40;;;23.20;70.80;;;;;;5030898;28;20298;-61
2023/09/08 02:04:07;;;;;;;5.63;4.80;;;23.20;70.80;;;;;;5030282;28;20220;-62
2023/09/08 02:06:34;;;;;;;6.65;5.15;;;23.20;70.80;;;;;;5030708;28;20188;-61
2023/09/08 02:09:02;;;;;;;5.78;5.13;;;23.20;70.80;;;;;;5030579;28;20216;-61
2023/09/08 02:11:30;;;;;;;5.75;5.25;;;23.20;70.70;;;;;;5030560;28;20300;-62
2023/09/08 02:13:57;;;;;;;5.63;4.65;;;23.20;70.70;;;;;;5030430;28;20348;-62
2023/09/08 02:16:26;;;;;;;5.75;4.70;;;23.20;70.70;;;;;;5030416;28;20231;-61
2023/09/08 02:18:53;;;;;;;6.50;5.45;;;23.10;70.60;;;;;;5030401;28;20243;-61
2023/09/08 02:21:25;;;;;;;5.90;5.28;;;23.20;70.70;;;;;;5030597;28;20197;-62
2023/09/08 02:26:34;;;;;;;5.38;4.80;;;23.20;70.70;;;;;;5060512;28;20229;-61
2023/09/08 02:29:01;;;;;;;6.53;4.75;;;23.10;70.60;;;;;;5092883;28;20581;-61
2023/09/08 02:31:30;;;;;;;5.38;4.85;;;23.10;70.60;;;;;;5093092;28;20255;-61
2023/09/08 02:33:58;;;;;;;5.45;4.90;;;23.10;70.50;;;;;;5092889;28;20190;-61
2023/09/08 02:36:26;;;;;;;5.70;5.07;;;23.10;70.50;;;;;;5092721;28;20214;-61
2023/09/08 02:38:54;;;;;;;5.45;4.88;;;23.10;70.50;;;;;;5092821;28;20190;-62
2023/09/08 02:41:21;;;;;;;6.20;4.90;;;23.10;70.50;;;;;;5092706;28;20187;-61
2023/09/08 02:43:49;;;;;;;5.43;4.82;;;23.10;70.50;;;;;;5092478;28;20193;-61
2023/09/08 02:46:17;;;;;;;5.20;4.70;;;23.10;70.50;;;;;;5092340;28;20202;-61
2023/09/08 02:48:45;;;;;;;7.68;5.00;;;23.10;70.50;;;;;;5092438;28;20197;-61
2023/09/08 02:51:13;;;;;;;5.38;4.88;;;23.10;70.50;;;;;;5092727;28;20217;-61
2023/09/08 02:53:40;;;;;;;5.70;4.88;;;23.10;70.50;;;;;;5092636;28;20247;-61
2023/09/08 02:56:09;;;;;;;5.20;4.70;;;23.10;70.50;;;;;;5092472;28;20230;-62
2023/09/08 02:58:39;;;;;;;5.38;4.78;;;23.10;70.40;;;;;;5092357;28;20692;-61
2023/09/08 03:01:20;;;;;;;5.97;4.90;;;23.10;70.40;;;;;;5092109;28;20213;-62
2023/09/08 03:03:50;;;;;;;6.03;5.13;;;23.10;70.50;;;;;;5092130;28;20665;-60
2023/09/08 03:06:20;;;;;;;5.70;5.10;;;23.10;70.40;;;;;;5091459;28;20202;-61
2023/09/08 03:08:50;;;;;;;7.35;4.68;;;23.10;70.40;;;;;;5092475;28;20186;-61
2023/09/08 03:11:18;;;;;;;5.47;4.82;;;23.10;70.50;;;;;;5092378;28;20194;-61
2023/09/08 03:13:45;;;;;;;5.03;4.53;;;23.10;70.40;;;;;;5092570;28;20193;-62
2023/09/08 03:16:13;;;;;;;6.07;5.10;;;23.20;70.60;;;;;;5092377;28;20236;-61
2023/09/08 03:18:41;;;;;;;6.13;5.07;;;23.00;70.30;;;;;;5092121;28;20194;-61
2023/09/08 03:21:10;;;;;;;6.15;5.03;;;23.10;70.40;;;;;;5091949;28;20221;-61
2023/09/08 03:23:38;;;;;;;5.80;4.63;;;23.10;70.40;;;;;;5092433;28;20186;-62
2023/09/08 03:26:05;;;;;;;5.22;4.72;;;23.10;70.40;;;;;;5091580;28;20248;-61
2023/09/08 03:28:34;;;;;;;6.22;4.60;;;23.10;70.40;;;;;;5092189;28;20194;-61
2023/09/08 03:31:02;;;;;;;5.00;4.50;;;23.10;70.40;;;;;;5092198;28;20214;-62
2023/09/08 03:33:29;;;;;;;5.03;4.45;;;23.10;71.10;;;;;;5092047;28;20216;-62
2023/09/08 03:35:57;;;;;;;7.07;5.03;;;23.00;70.20;;;;;;5091983;28;20230;-62
2023/09/08 03:38:29;;;;;;;5.35;4.40;;;23.10;70.30;;;;;;5092203;28;20190;-61
2023/09/08 03:40:58;;;;;;;6.05;5.07;;;23.00;70.20;;;;;;5091739;28;20218;-61
2023/09/08 03:43:28;;;;;;;5.22;4.70;;;23.10;70.30;;;;;;5091829;28;20186;-61
2023/09/08 03:48:59;;;;;;;5.88;4.75;;;23.00;70.20;;;;;;5089410;28;20285;-61
2023/09/08 04:00:31;;;;;;;4.97;4.43;;;23.10;70.30;;;;;;5029381;28;20223;-61
2023/09/08 04:02:59;;;;;;;5.88;4.90;;;23.00;70.20;;;;;;5029036;28;20192;-61
2023/09/08 04:05:26;;;;;;;5.47;4.80;;;23.10;70.30;;;;;;5029447;28;20220;-61
2023/09/08 04:07:54;;;;;;;4.93;4.43;;;23.10;70.30;;;;;;5029168;28;20213;-61
2023/09/08 04:10:24;;;;;;;5.53;4.90;;;23.00;70.20;;;;;;5029130;28;20216;-61
2023/09/08 04:12:51;;;;;;;5.28;4.78;;;23.00;70.20;;;;;;5029246;28;20216;-61
2023/09/08 04:15:19;;;;;;;7.43;4.82;;;23.00;70.20;;;;;;5029266;28;20216;-61
2023/09/08 04:17:47;;;;;;;4.63;4.13;;;23.00;70.20;;;;;;5030002;28;20228;-61
2023/09/08 04:20:15;;;;;;;4.97;4.30;;;23.00;70.20;;;;;;5032944;28;20224;-61
2023/09/08 04:23:23;;;;;;;6.28;4.95;;;23.10;70.30;;;;;;5059264;28;20570;-61
2023/09/08 04:25:59;;;;;;;5.10;4.60;;;23.00;70.20;;;;;;5095031;28;20234;-61
2023/09/08 04:28:27;;;;;;;5.00;4.40;;;23.00;70.20;;;;;;5095117;28;20194;-61
2023/09/08 04:30:54;;;;;;;5.18;4.32;;;23.00;70.20;;;;;;5095470;28;20213;-62
2023/09/08 04:33:24;;;;;;;5.45;4.75;;;23.00;70.20;;;;;;5094859;28;20209;-61
2023/09/08 04:35:52;;;;;;;5.70;4.90;;;23.00;70.20;;;;;;5095342;28;20218;-61
2023/09/08 04:38:19;;;;;;;5.07;4.22;;;23.00;70.20;;;;;;5095303;28;20190;-61
2023/09/08 04:40:47;;;;;;;8.18;4.68;;;23.00;70.20;;;;;;5094979;28;20271;-61
2023/09/08 04:43:19;;;;;;;5.57;4.50;;;23.00;70.20;;;;;;5094757;28;20251;-59
2023/09/08 04:45:48;;;;;;;6.45;4.75;;;23.00;70.20;;;;;;5094946;28;20249;-58
2023/09/08 04:48:15;;;;;;;5.18;4.07;;;23.00;70.10;;;;;;5094624;28;20224;-61
2023/09/08 04:50:43;;;;;;;4.95;4.45;;;23.00;70.10;;;;;;5095058;28;20218;-61
2023/09/08 04:53:11;;;;;;;5.80;4.40;;;23.00;70.10;;;;;;5094967;28;20190;-61
2023/09/08 04:55:39;;;;;;;5.32;4.47;;;23.00;70.20;;;;;;5094931;28;20225;-61
2023/09/08 04:58:06;;;;;;;5.28;4.45;;;23.00;70.10;;;;;;5094655;28;20213;-60
2023/09/08 05:00:35;;;;;;;5.03;4.53;;;23.00;70.90;;;;;;5094373;28;20218;-61
2023/09/08 05:06:19;;;;;;;5.22;4.45;;;23.00;70.10;;;;;;5089597;28;20210;-60
2023/09/08 05:08:47;;;;;;;5.30;4.80;;;23.00;70.10;;;;;;5039404;28;20199;-61
2023/09/08 05:11:17;;;;;;;5.20;4.68;;;22.90;70.10;;;;;;5091948;28;20283;-60
2023/09/08 05:13:44;;;;;;;5.43;4.53;;;23.10;70.20;;;;;;5094669;28;20186;-61
2023/09/08 05:16:14;;;;;;;5.75;4.57;;;23.00;70.20;;;;;;5094433;28;20217;-62
2023/09/08 05:18:42;;;;;;;5.07;4.35;;;23.10;70.30;;;;;;5094004;28;20186;-61
2023/09/08 05:21:09;;;;;;;5.85;5.07;;;23.00;70.10;;;;;;5094515;28;20214;-61
2023/09/08 05:23:37;;;;;;;6.32;4.70;;;23.00;70.20;;;;;;5094482;28;20259;-61
2023/09/08 05:26:04;;;;;;;5.53;4.18;;;23.00;70.20;;;;;;5093619;28;20233;-61
2023/09/08 05:28:32;;;;;;;6.07;4.93;;;23.00;70.20;;;;;;5093979;28;20206;-61
2023/09/08 05:30:59;;;;;;;5.15;4.40;;;23.00;70.10;;;;;;5093369;28;20770;-62
2023/09/08 05:33:28;;;;;;;6.72;4.93;;;22.90;70.10;;;;;;5094081;28;20225;-61
2023/09/08 05:35:56;;;;;;;5.40;4.88;;;23.00;70.10;;;;;;5094220;28;20213;-61
2023/09/08 05:38:25;;;;;;;5.38;4.80;;;22.90;70.00;;;;;;5094111;28;20354;-61
2023/09/08 05:40:55;;;;;;;5.55;4.95;;;23.00;70.10;;;;;;5094382;28;20253;-61
2023/09/08 05:43:24;;;;;;;5.88;5.13;;;23.00;70.10;;;;;;5093714;28;20197;-61
2023/09/08 05:45:52;;;;;;;5.60;4.90;;;23.00;70.20;;;;;;5093967;28;20218;-61
2023/09/08 05:48:20;;;;;;;5.28;4.75;;;22.90;70.10;;;;;;5093869;28;20206;-62
2023/09/08 05:50:49;;;;;;;5.88;4.93;;;23.00;70.20;;;;;;5093621;28;20214;-60
2023/09/08 05:56:16;;;;;;;5.80;4.80;;;23.00;70.20;;;;;;5024406;28;20214;-60
2023/09/08 05:58:44;;;;;;;6.57;5.47;;;23.00;70.20;;;;;;5093755;28;20192;-60
2023/09/08 06:01:11;;;;;;;5.07;4.57;;;23.00;70.20;;;;;;5093358;28;20228;-60
2023/09/08 06:03:39;;;;;;;4.85;4.35;;;23.00;70.20;;;;;;5093688;28;20186;-61
2023/09/08 06:06:08;;;;;;;5.75;5.15;;;23.00;70.20;;;;;;5093488;28;20218;-61
2023/09/08 06:08:40;;;;;;;6.30;5.10;;;23.00;70.20;;;;;;5093342;28;20190;-60
2023/09/08 06:11:08;;;;;;;5.95;4.55;;;23.00;70.20;;;;;;5093727;28;20218;-61
2023/09/08 06:13:35;;;;;;;5.68;5.10;;;23.00;70.20;;;;;;5093501;28;20225;-61
2023/09/08 06:16:03;;;;;;;5.30;4.72;;;22.90;70.10;;;;;;5093386;28;20218;-61
2023/09/08 06:18:31;;;;;;;5.70;5.10;;;23.00;70.20;;;;;;5092880;28;20222;-61
2023/09/08 06:20:59;;;;;;;5.50;4.68;;;23.00;70.20;;;;;;5093033;28;20218;-61
2023/09/08 06:24:02;;;;;;;5.15;4.43;;;23.00;70.10;;;;;;5080794;28;20194;-61
2023/09/08 06:26:29;;;;;;;5.15;4.65;;;23.00;70.10;;;;;;5072023;28;20318;-63
2023/09/08 06:28:56;;;;;;;6.47;4.55;;;23.10;70.20;;;;;;5072477;28;20230;-63
2023/09/08 06:31:28;;;;;;;6.30;4.57;;;23.10;70.20;;;;;;5090067;28;20213;-63
2023/09/08 06:33:55;;;;;;;5.25;4.75;;;23.00;70.00;;;;;;5090542;28;20191;-62
2023/09/08 06:36:25;;;;;;;6.70;5.55;;;23.20;70.20;;;;;;5084464;28;20223;-65
2023/09/08 06:38:55;;;;;;;5.88;4.90;;;23.20;70.20;;;;;;5079538;28;20194;-66
2023/09/08 06:41:23;;;;;;;5.95;5.15;;;23.10;70.10;;;;;;5091695;28;20226;-65
2023/09/08 06:46:33;;;;;;;5.47;4.97;;;23.20;70.10;;;;;;5012064;28;20224;-65
2023/09/08 06:49:02;;;;;;;5.50;4.90;;;23.10;70.00;;;;;;5014517;28;20195;-63
2023/09/08 06:57:39;;;;;;;5.55;4.85;;;23.20;70.00;;;;;;5014338;28;20272;-63
2023/09/08 07:00:28;;;;;;;5.90;5.05;;;23.30;70.00;;;;;;5007560;28;20212;-61
2023/09/08 07:03:06;;;;;;;5.57;4.85;;;23.30;69.70;;;;;;5023118;28;20211;-63
2023/09/08 07:06:10;;;;;;;5.88;5.28;;;23.30;69.70;;;;;;4973964;28;20274;-66
2023/09/08 07:08:38;;;;;;;8.40;5.30;;;23.20;69.40;;;;;;5020044;28;20220;-63
2023/09/08 07:11:08;;;;;;;9.27;5.00;;;23.30;69.70;;;;;;5010880;28;20576;-66
2023/09/08 07:13:38;;;;;;;6.53;5.18;;;23.40;69.80;;;;;;5018528;28;20200;-66
2023/09/08 07:16:05;;;;;;;9.00;6.15;;;23.40;69.80;;;;;;5015333;28;20631;-66
2023/09/08 07:18:35;;;;;;;9.70;5.88;;;23.40;69.80;;;;;;5076547;28;20769;-65
2023/09/08 07:21:04;;;;;;;8.38;5.38;;;23.40;69.80;;;;;;5069843;28;20225;-63
2023/09/08 07:23:35;;;;;;;7.85;5.63;;;23.40;69.70;;;;;;5071104;28;20682;-65
2023/09/08 07:26:02;;;;;;;7.40;5.80;;;23.40;69.80;;;;;;5075719;28;20784;-65
2023/09/08 07:28:30;;;;;;;6.93;5.50;;;23.50;69.80;;;;;;5088578;28;20263;-64
2023/09/08 07:31:23;;;;;;;9.30;5.80;;;23.40;69.80;;;;;;5077709;28;20222;-64
2023/09/08 07:36:41;;;;;;;9.30;5.85;;;23.50;69.90;;;;;;4997489;28;20225;-61
2023/09/08 07:39:10;;;;;;;9.55;5.90;;;23.50;69.90;;;;;;5016128;28;20243;-64
2023/09/08 07:41:40;;;;;;;7.65;6.00;;;23.50;69.90;;;;;;5075371;28;20602;-62
2023/09/08 07:44:23;;;;;;;9.52;6.10;;;23.60;70.00;;;;;;5087860;28;20693;-63
2023/09/08 07:47:04;;;;;;;10.98;5.70;;;23.60;70.10;;;;;;5085739;28;20233;-63
2023/09/08 07:49:35;;;;;;;7.68;5.57;;;23.60;70.00;;;;;;5082225;28;20297;-64
2023/09/08 07:52:33;;;;;;;10.43;5.78;;;23.60;69.90;;;;;;5088922;28;20218;-62
2023/09/08 08:01:38;;;;;;;7.97;5.68;;;23.70;69.90;;;;;;5050725;28;20236;-63
2023/09/08 08:04:13;;;;;;;9.82;6.18;;;23.80;70.10;;;;;;5090138;28;20197;-64
2023/09/08 08:06:42;;;;;;;6.47;5.70;;;23.80;70.20;;;;;;5073577;28;20218;-64
2023/09/08 08:09:10;;;;;;;10.70;5.97;;;23.80;70.20;;;;;;5073324;28;20240;-64
2023/09/08 08:25:08;;;;;;;10.20;5.75;;;23.90;70.50;;;;;;4991612;28;20208;-65
2023/09/08 08:27:36;;;;;;;8.98;6.28;;;24.00;70.60;;;;;;4918063;29;20283;-64
2023/09/08 08:30:10;;;;;;;9.95;5.93;;;23.90;70.40;;;;;;4986501;28;20349;-64
2023/09/08 08:36:04;;;;;;;12.25;5.82;;;23.80;70.30;;;;;;4932287;29;20322;-65
2023/09/08 08:56:09;;;;;;;8.45;5.97;;;23.90;70.10;;;;;;4988319;28;20301;-64
2023/09/08 08:58:45;;;;;;;7.50;5.80;;;24.00;70.20;;;;;;4997460;28;20237;-65
2023/09/08 09:01:28;;;;;;;12.18;5.90;;;23.90;70.10;;;;;;4991157;28;20235;-64
2023/09/08 09:03:57;;;;;;;7.35;5.75;;;24.00;70.20;;;;;;5000784;28;20197;-64
2023/09/08 09:06:25;;;;;;;10.25;6.43;;;24.00;70.20;;;;;;4992107;28;20233;-64
2023/09/08 09:08:53;;;;;;;12.35;6.15;;;24.00;70.20;;;;;;4987748;28;20289;-64
2023/09/08 09:14:28;;;;;;;13.70;5.75;;;24.10;70.30;;;;;;5079022;28;20212;-61
2023/09/08 09:17:05;;;;;;;8.52;5.63;;;24.10;70.30;;;;;;5080577;28;20202;-64
2023/09/08 09:23:00;;;;;;;9.40;6.22;;;24.20;70.30;;;;;;5072575;28;20197;-64
2023/09/08 09:26:05;;;;;;;9.02;5.97;;;24.10;70.20;;;;;;5074295;28;20229;-64
2023/09/08 09:32:35;;;;;;;8.65;5.85;;;24.20;70.00;;;;;;4982098;28;20270;-64
2023/09/08 09:41:44;;;;;;;6.15;5.45;;;24.10;69.60;;;;;;4941937;29;20262;-62
2023/09/08 09:44:15;;;;;;;6.82;5.70;;;24.20;69.60;;;;;;4946915;29;20287;-62
2023/09/08 10:18:53;;;;;;;9.00;5.57;;;24.30;68.80;;;;;;5086870;28;20301;-64
2023/09/08 10:28:03;;;;;;;7.57;5.07;;;24.30;68.60;;;;;;5023179;28;20249;-64
2023/09/08 10:30:47;;;;;;;6.68;5.35;;;24.30;68.60;;;;;;5031895;28;20209;-64
2023/09/08 10:33:30;;;;;;;8.05;5.28;;;24.30;68.50;;;;;;5061050;28;20289;-64
2023/09/08 10:36:49;;;;;;;6.95;5.72;;;24.30;68.40;;;;;;5001871;28;20226;-63
2023/09/08 10:50:06;;;;;;;7.75;5.28;;;24.30;68.10;;;;;;5002706;28;20292;-63
2023/09/08 10:59:29;;;;;;;;;;;;;;;;;;;;;
2023/09/08 11:12:10;;;;;;;7.10;5.47;;;24.40;67.70;;;;;;4883482;29;20706;-64
2023/09/08 11:14:40;;;;;;;6.68;4.85;;;24.40;67.70;;;;;;4875021;29;20309;-65
2023/09/08 11:17:26;;;;;;;7.68;5.20;;;24.40;67.70;;;;;;4892941;29;20253;-64
2023/09/08 11:20:16;;;;;;;10.68;6.13;;;24.40;67.80;;;;;;4870280;29;20206;-64
2023/09/08 11:28:34;;;;;;;7.47;5.30;;;24.40;67.80;;;;;;4936852;28;20261;-62
2023/09/08 11:31:04;;;;;;;7.68;5.30;;;24.40;67.80;;;;;;4994749;28;20221;-64
2023/09/08 11:36:41;;;;;;;6.28;5.60;;;24.40;67.70;;;;;;4921588;29;20242;-64
2023/09/08 11:39:11;;;;;;;7.65;6.25;;;24.50;67.90;;;;;;4941673;29;20237;-65
2023/09/08 11:41:40;;;;;;;10.02;7.20;;;24.50;68.00;;;;;;4941399;29;20243;-65
2023/09/08 11:47:17;;;;;;;12.45;8.88;;;24.40;68.30;;;;;;4845759;29;20238;-63
2023/09/08 11:55:30;;;;;;;10.95;7.20;;;24.40;69.10;;;;;;4832766;29;20231;-64
2023/09/08 12:04:26;;;;;;;13.30;9.88;;;24.40;69.30;;;;;;4882133;29;20746;-64
2023/09/08 12:06:59;;;;;;;12.23;8.80;;;24.40;69.40;;;;;;4919641;29;20257;-64
2023/09/08 12:09:28;;;;;;;13.57;10.80;;;24.50;69.70;;;;;;4925685;29;20205;-62
2023/09/08 12:12:10;;;;;;;13.10;10.48;;;24.50;69.80;;;;;;4948462;28;20213;-64
2023/09/08 12:17:33;;;;;;;18.35;11.88;;;24.60;69.90;;;;;;4987871;28;20238;-63
2023/09/08 12:20:19;;;;;;;12.98;10.88;;;24.50;69.90;;;;;;4996220;28;20228;-62
2023/09/08 12:23:17;;;;;;;16.05;12.50;;;24.60;70.10;;;;;;4985660;28;21337;-59
2023/09/08 12:26:22;;;;;;;17.83;12.88;;;24.60;70.30;;;;;;5074933;28;20205;-62
2023/09/08 12:28:54;;;;;;;14.68;12.73;;;24.60;70.20;;;;;;5071420;28;21087;-61
2023/09/08 12:32:00;;;;;;;14.30;11.70;;;24.60;70.20;;;;;;5068396;28;20229;-65
2023/09/08 12:38:29;;;;;;;16.15;12.48;;;24.70;70.10;;;;;;5028501;28;20232;-63
2023/09/08 12:41:19;;;;;;;15.57;11.98;;;24.60;70.00;;;;;;5010214;28;20203;-63
2023/09/08 12:43:52;;;;;;;19.38;12.85;;;24.70;70.10;;;;;;5018918;28;20221;-61
2023/09/08 12:46:20;;;;;;;17.52;11.82;;;24.70;70.10;;;;;;5079629;28;20190;-60
2023/09/08 12:52:20;;;;;;;18.02;12.75;;;24.70;70.30;;;;;;5070787;28;20595;-64
2023/09/08 12:54:54;;;;;;;20.65;13.55;;;24.70;70.20;;;;;;5079189;28;20414;-64
2023/09/08 12:57:38;;;;;;;15.65;12.63;;;24.70;70.20;;;;;;5068067;28;20230;-63
2023/09/08 13:03:26;;;;;;;22.40;13.48;;;24.70;70.30;;;;;;5056589;28;20398;-64
2023/09/08 13:08:54;;;;;;;;;;;;;;;;;;;;;
2023/09/08 13:11:29;;;;;;;21.83;13.48;;;24.90;71.00;;;;;;5007631;28;20213;-63
2023/09/08 13:14:09;;;;;;;24.13;14.50;;;24.80;71.00;;;;;;5056453;28;20257;-64
2023/09/08 13:20:06;;;;;;;23.63;13.45;;;24.90;71.00;;;;;;4983328;28;20324;-59
2023/09/08 13:45:50;;;;;;;21.05;12.57;;;24.90;70.60;;;;;;4913918;29;20377;-61
2023/09/08 13:54:46;;;;;;;19.00;12.40;;;24.90;70.50;;;;;;4933445;28;20586;-66
2023/09/08 14:00:56;;;;;;;16.88;11.85;;;24.90;70.30;;;;;;4943991;28;20234;-63
2023/09/08 14:16:53;;;;;;;17.38;10.55;;;25.00;70.10;;;;;;5070360;28;20266;-64
2023/09/08 14:26:25;;;;;;;;;;;;;;;;;;;;;
2023/09/08 14:32:51;;;;;;;19.55;13.45;;;25.10;69.90;;;;;;5011924;28;20248;-63
2023/09/08 14:42:46;;;;;;;24.83;11.90;;;25.10;69.80;;;;;;5018147;28;20716;-59
2023/09/08 14:58:46;;;;;;;15.02;11.00;;;25.20;70.10;;;;;;4984995;28;20330;-61
2023/09/08 15:38:00;;;;;;;14.57;10.30;;;25.30;70.20;;;;;;5081814;27;20567;-64
2023/09/08 15:47:22;;;;;;;16.10;10.45;;;25.20;70.20;;;;;;4974170;28;20197;-60
2023/09/08 15:50:25;;;;;;;16.38;10.98;;;25.30;70.30;;;;;;4975715;28;20224;-62
2023/09/08 15:52:56;;;;;;;15.13;10.63;;;25.30;69.70;;;;;;4962631;28;20284;-63
2023/09/08 15:56:07;;;;;;;13.80;10.18;;;25.30;70.40;;;;;;4986763;28;20236;-63
2023/09/08 16:05:08;;;;;;;18.20;10.45;;;25.20;70.60;;;;;;4912235;28;20244;-60
2023/09/08 16:07:45;;;;;;;15.32;11.13;;;25.20;70.90;;;;;;4999040;28;20286;-64
2023/09/08 16:10:16;;;;;;;16.05;10.43;;;25.20;71.30;;;;;;5058358;28;20229;-62
2023/09/08 16:12:53;;;;;;;;;;;;;;;;;;;;;
2023/09/08 16:15:21;;;;;;;15.93;10.13;;;25.30;71.40;;;;;;5058705;28;20234;-61
2023/09/08 16:17:54;;;;;;;12.93;10.15;;;25.40;71.50;;;;;;5062493;28;20256;-62
2023/09/08 16:20:26;;;;;;;15.30;9.60;;;25.50;71.60;;;;;;5064029;28;20226;-63
2023/09/08 16:22:53;;;;;;;14.93;9.95;;;25.50;71.60;;;;;;5068400;28;20191;-61
2023/09/08 16:25:24;;;;;;;14.57;9.90;;;25.50;71.60;;;;;;5068706;28;20222;-61
2023/09/08 16:27:52;;;;;;;14.20;9.65;;;25.60;71.60;;;;;;5056715;28;20196;-63
2023/09/08 16:30:19;;;;;;;17.05;10.02;;;25.60;71.30;;;;;;5064628;28;20227;-60
2023/09/08 16:32:50;;;;;;;14.48;9.68;;;25.60;71.10;;;;;;5066056;28;20282;-64
2023/09/08 16:35:18;;;;;;;14.38;9.48;;;25.70;71.10;;;;;;5060343;28;20245;-63
2023/09/08 16:37:47;;;;;;;16.40;9.02;;;25.70;71.00;;;;;;5049358;28;20208;-62
2023/09/08 16:40:17;;;;;;;14.93;8.93;;;25.70;71.00;;;;;;5048446;28;20215;-64
2023/09/08 16:42:45;;;;;;;20.48;9.32;;;25.70;71.00;;;;;;5058027;28;20202;-61
2023/09/08 16:45:22;;;;;;;12.07;8.88;;;25.80;71.10;;;;;;5068280;28;20251;-63
2023/09/08 16:47:50;;;;;;;14.70;9.63;;;25.70;71.00;;;;;;5045066;28;20238;-63
2023/09/08 16:50:19;;;;;;;16.45;8.88;;;25.80;71.00;;;;;;5035279;28;20220;-63
2023/09/08 16:52:49;;;;;;;13.07;8.90;;;25.80;71.00;;;;;;5035091;28;20188;-64
2023/09/08 16:55:17;;;;;;;15.85;9.13;;;25.80;71.00;;;;;;5035140;28;20223;-64
2023/09/08 16:57:45;;;;;;;14.45;8.98;;;25.80;70.80;;;;;;5039026;28;20228;-62
2023/09/08 17:00:13;;;;;;;14.98;8.77;;;25.90;71.10;;;;;;5051107;28;20244;-65
2023/09/08 17:02:41;;;;;;;10.80;8.93;;;25.90;70.90;;;;;;5034987;28;20188;-62
2023/09/08 17:05:10;;;;;;;11.15;8.75;;;25.90;70.90;;;;;;5050048;28;20231;-67
2023/09/08 17:10:20;;;;;;;10.65;8.52;;;25.90;70.70;;;;;;5054474;28;20215;-63
2023/09/08 17:15:36;;;;;;;15.38;8.77;;;26.00;70.70;;;;;;5034230;28;20223;-65
2023/09/08 17:18:03;;;;;;;12.63;9.00;;;26.00;70.60;;;;;;5034446;28;20283;-65
2023/09/08 17:20:36;;;;;;;13.35;9.27;;;26.00;70.50;;;;;;5034489;28;20302;-66
2023/09/08 17:23:45;;;;;;;14.80;8.32;;;26.10;70.70;;;;;;5033788;28;20206;-65
2023/09/08 17:30:43;;;;;;;14.80;9.32;;;26.20;70.60;;;;;;4950028;28;20240;-64
2023/09/08 17:33:12;;;;;;;13.38;9.45;;;26.10;70.40;;;;;;5005590;28;20215;-63
2023/09/08 17:38:30;;;;;;;12.30;8.52;;;26.10;70.40;;;;;;5051563;28;20196;-65
2023/09/08 17:40:59;;;;;;;12.55;8.88;;;26.10;70.50;;;;;;5039241;28;20232;-66
2023/09/08 17:43:26;;;;;;;11.68;8.80;;;26.10;70.50;;;;;;5048214;28;20199;-63
2023/09/08 17:45:53;;;;;;;11.68;8.70;;;26.10;71.40;;;;;;5037849;28;20236;-65
2023/09/08 17:48:23;;;;;;;10.48;8.27;;;26.10;70.60;;;;;;5034222;28;20264;-64
2023/09/08 17:50:50;;;;;;;12.77;8.65;;;26.10;70.50;;;;;;5038211;28;20228;-65
2023/09/08 17:53:21;;;;;;;14.27;9.10;;;26.10;70.50;;;;;;5033587;28;20192;-61
2023/09/08 17:55:49;;;;;;;13.07;8.15;;;26.10;70.50;;;;;;5034049;28;20219;-66
2023/09/08 17:58:17;;;;;;;11.90;8.75;;;26.10;70.40;;;;;;5033226;28;20254;-66
2023/09/08 18:00:47;;;;;;;13.60;9.20;;;26.10;70.40;;;;;;5033523;28;20220;-65
2023/09/08 18:03:15;;;;;;;12.52;8.40;;;26.10;70.40;;;;;;5036005;28;20211;-60
2023/09/08 18:05:44;;;;;;;21.20;9.65;;;26.00;70.30;;;;;;5050483;28;20211;-63
2023/09/08 18:08:12;;;;;;;12.30;9.63;;;26.00;70.20;;;;;;5052903;28;20231;-66
2023/09/08 18:10:40;;;;;;;12.50;8.82;;;26.00;70.20;;;;;;5053048;28;20223;-67
2023/09/08 18:13:08;;;;;;;13.35;9.68;;;26.00;70.20;;;;;;5053126;28;20184;-66
2023/09/08 18:15:36;;;;;;;12.35;9.30;;;26.00;70.20;;;;;;5049938;28;20285;-65
2023/09/08 18:18:04;;;;;;;14.98;9.40;;;25.90;70.00;;;;;;5050718;28;20592;-66
2023/09/08 18:20:34;;;;;;;25.85;9.25;;;25.90;69.80;;;;;;5053482;28;20301;-66
2023/09/08 18:23:03;;;;;;;11.30;8.45;;;25.80;69.50;;;;;;5052925;28;20191;-66
2023/09/08 18:25:32;;;;;;;16.25;9.43;;;25.80;69.70;;;;;;5053478;28;20298;-65
2023/09/08 18:28:00;;;;;;;10.40;8.32;;;25.70;69.90;;;;;;5053372;28;20192;-64
2023/09/08 18:30:29;;;;;;;12.50;8.80;;;25.60;69.90;;;;;;5053042;28;20234;-66
2023/09/08 18:32:59;;;;;;;12.18;9.63;;;25.50;69.90;;;;;;5052971;28;20196;-65
2023/09/08 18:35:31;;;;;;;14.02;10.25;;;25.40;69.80;;;;;;5052751;28;20326;-66
2023/09/08 18:37:59;;;;;;;13.18;10.02;;;25.40;70.00;;;;;;5052816;28;20285;-66
2023/09/08 18:40:34;;;;;;;12.90;10.00;;;25.30;69.90;;;;;;5037994;28;20219;-64
2023/09/08 18:46:11;;;;;;;11.35;9.32;;;25.20;70.80;;;;;;5028473;28;20230;-66
2023/09/08 18:48:38;;;;;;;12.95;10.52;;;25.10;70.00;;;;;;5052856;28;20196;-66
2023/09/08 18:51:06;;;;;;;11.77;9.63;;;25.10;70.00;;;;;;5052490;28;20215;-66
2023/09/08 18:53:34;;;;;;;11.98;9.93;;;25.10;70.10;;;;;;5052965;28;20194;-65
2023/09/08 18:56:03;;;;;;;12.32;10.30;;;25.10;70.10;;;;;;5052917;28;20217;-65
2023/09/08 18:58:33;;;;;;;13.13;10.05;;;25.00;70.10;;;;;;5052869;28;20438;-66
2023/09/08 19:01:04;;;;;;;13.25;10.30;;;25.00;70.10;;;;;;5053041;28;20230;-66
2023/09/08 19:03:32;;;;;;;12.88;9.50;;;24.90;70.10;;;;;;5052649;28;20202;-66
2023/09/08 19:06:03;;;;;;;14.20;9.68;;;24.90;70.10;;;;;;5052419;28;20216;-66
2023/09/08 19:08:31;;;;;;;14.35;10.20;;;24.90;70.10;;;;;;5052492;28;20191;-66